sensor_id;sensor_type;location;lat;lon;timestamp;P1;durP1;ratioP1;P2;durP2;ratioP2
7195;SDS011;3639;51.308;5.624;2023-07-13T00:00:23;5.03;;;1.80;;
7195;SDS011;3639;51.308;5.624;2023-07-13T00:02:49;2.63;;;1.63;;
7195;SDS011;3639;51.308;5.624;2023-07-13T00:05:14;3.83;;;1.80;;
7195;SDS011;3639;51.308;5.624;2023-07-13T00:07:41;4.13;;;1.43;;
7195;SDS011;3639;51.308;5.624;2023-07-13T00:10:07;6.10;;;1.90;;
7195;SDS011;3639;51.308;5.624;2023-07-13T00:12:35;3.63;;;1.67;;
7195;SDS011;3639;51.308;5.624;2023-07-13T00:15:04;2.03;;;1.80;;
7195;SDS011;3639;51.308;5.624;2023-07-13T00:17:32;3.43;;;1.93;;
7195;SDS011;3639;51.308;5.624;2023-07-13T00:19:58;2.87;;;1.60;;
7195;SDS011;3639;51.308;5.624;2023-07-13T00:22:24;4.93;;;1.90;;
7195;SDS011;3639;51.308;5.624;2023-07-13T00:24:53;6.33;;;1.73;;
7195;SDS011;3639;51.308;5.624;2023-07-13T00:27:22;4.00;;;1.70;;
7195;SDS011;3639;51.308;5.624;2023-07-13T00:29:49;4.60;;;2.03;;
7195;SDS011;3639;51.308;5.624;2023-07-13T00:32:14;2.33;;;1.63;;
7195;SDS011;3639;51.308;5.624;2023-07-13T00:34:40;2.67;;;1.80;;
7195;SDS011;3639;51.308;5.624;2023-07-13T00:37:06;4.03;;;1.50;;
7195;SDS011;3639;51.308;5.624;2023-07-13T00:39:33;3.97;;;2.00;;
7195;SDS011;3639;51.308;5.624;2023-07-13T00:41:59;2.93;;;1.83;;
7195;SDS011;3639;51.308;5.624;2023-07-13T00:44:26;5.90;;;1.77;;
7195;SDS011;3639;51.308;5.624;2023-07-13T00:46:52;3.00;;;1.80;;
7195;SDS011;3639;51.308;5.624;2023-07-13T00:49:19;5.43;;;1.70;;
7195;SDS011;3639;51.308;5.624;2023-07-13T00:54:23;7.83;;;2.00;;
7195;SDS011;3639;51.308;5.624;2023-07-13T00:56:53;4.93;;;1.70;;
7195;SDS011;3639;51.308;5.624;2023-07-13T00:59:22;2.63;;;1.53;;
7195;SDS011;3639;51.308;5.624;2023-07-13T01:01:49;2.60;;;1.80;;
7195;SDS011;3639;51.308;5.624;2023-07-13T01:04:16;3.73;;;1.73;;
7195;SDS011;3639;51.308;5.624;2023-07-13T01:06:42;3.77;;;2.00;;
7195;SDS011;3639;51.308;5.624;2023-07-13T01:09:09;3.80;;;1.87;;
7195;SDS011;3639;51.308;5.624;2023-07-13T01:11:35;5.93;;;1.60;;
7195;SDS011;3639;51.308;5.624;2023-07-13T01:14:02;6.70;;;1.90;;
7195;SDS011;3639;51.308;5.624;2023-07-13T01:16:30;4.73;;;2.30;;
7195;SDS011;3639;51.308;5.624;2023-07-13T01:18:57;5.03;;;1.60;;
7195;SDS011;3639;51.308;5.624;2023-07-13T01:21:24;4.63;;;2.03;;
7195;SDS011;3639;51.308;5.624;2023-07-13T01:23:51;3.63;;;1.70;;
7195;SDS011;3639;51.308;5.624;2023-07-13T01:26:16;4.33;;;1.83;;
7195;SDS011;3639;51.308;5.624;2023-07-13T01:28:42;4.00;;;2.00;;
7195;SDS011;3639;51.308;5.624;2023-07-13T01:31:09;4.27;;;1.73;;
7195;SDS011;3639;51.308;5.624;2023-07-13T01:33:36;10.07;;;2.00;;
7195;SDS011;3639;51.308;5.624;2023-07-13T01:36:03;4.20;;;1.60;;
7195;SDS011;3639;51.308;5.624;2023-07-13T01:38:28;4.53;;;1.87;;
7195;SDS011;3639;51.308;5.624;2023-07-13T01:40:54;5.83;;;1.80;;
7195;SDS011;3639;51.308;5.624;2023-07-13T01:43:20;6.20;;;2.40;;
7195;SDS011;3639;51.308;5.624;2023-07-13T01:45:46;2.80;;;1.50;;
7195;SDS011;3639;51.308;5.624;2023-07-13T01:48:12;6.87;;;2.10;;
7195;SDS011;3639;51.308;5.624;2023-07-13T01:50:38;4.20;;;2.27;;
7195;SDS011;3639;51.308;5.624;2023-07-13T01:53:04;5.53;;;1.80;;
7195;SDS011;3639;51.308;5.624;2023-07-13T01:55:30;3.73;;;1.77;;
7195;SDS011;3639;51.308;5.624;2023-07-13T01:57:57;3.93;;;1.80;;
7195;SDS011;3639;51.308;5.624;2023-07-13T02:00:23;9.60;;;1.97;;
7195;SDS011;3639;51.308;5.624;2023-07-13T02:02:49;4.77;;;1.80;;
7195;SDS011;3639;51.308;5.624;2023-07-13T02:05:15;6.37;;;2.53;;
7195;SDS011;3639;51.308;5.624;2023-07-13T02:07:41;3.73;;;1.90;;
7195;SDS011;3639;51.308;5.624;2023-07-13T02:10:08;3.00;;;1.70;;
7195;SDS011;3639;51.308;5.624;2023-07-13T02:12:35;3.73;;;2.13;;
7195;SDS011;3639;51.308;5.624;2023-07-13T02:15:01;8.13;;;2.30;;
7195;SDS011;3639;51.308;5.624;2023-07-13T02:17:28;3.60;;;1.90;;
7195;SDS011;3639;51.308;5.624;2023-07-13T02:19:54;5.20;;;2.30;;
7195;SDS011;3639;51.308;5.624;2023-07-13T02:22:20;3.83;;;1.80;;
7195;SDS011;3639;51.308;5.624;2023-07-13T02:24:46;4.63;;;2.00;;
7195;SDS011;3639;51.308;5.624;2023-07-13T02:27:12;5.30;;;2.50;;
7195;SDS011;3639;51.308;5.624;2023-07-13T02:29:38;2.17;;;1.67;;
7195;SDS011;3639;51.308;5.624;2023-07-13T02:32:04;4.70;;;1.90;;
7195;SDS011;3639;51.308;5.624;2023-07-13T02:34:30;4.60;;;2.00;;
7195;SDS011;3639;51.308;5.624;2023-07-13T02:36:56;2.70;;;1.50;;
7195;SDS011;3639;51.308;5.624;2023-07-13T02:39:21;2.87;;;2.03;;
7195;SDS011;3639;51.308;5.624;2023-07-13T02:41:47;2.80;;;1.80;;
7195;SDS011;3639;51.308;5.624;2023-07-13T02:44:13;4.67;;;1.90;;
7195;SDS011;3639;51.308;5.624;2023-07-13T02:46:40;2.93;;;1.93;;
7195;SDS011;3639;51.308;5.624;2023-07-13T02:49:05;4.50;;;1.87;;
7195;SDS011;3639;51.308;5.624;2023-07-13T02:51:31;5.10;;;1.87;;
7195;SDS011;3639;51.308;5.624;2023-07-13T02:53:59;6.53;;;2.17;;
7195;SDS011;3639;51.308;5.624;2023-07-13T02:56:29;7.60;;;2.20;;
7195;SDS011;3639;51.308;5.624;2023-07-13T02:58:56;8.70;;;1.90;;
7195;SDS011;3639;51.308;5.624;2023-07-13T03:01:22;3.90;;;1.73;;
7195;SDS011;3639;51.308;5.624;2023-07-13T03:03:49;6.87;;;2.20;;
7195;SDS011;3639;51.308;5.624;2023-07-13T03:06:15;4.73;;;2.60;;
7195;SDS011;3639;51.308;5.624;2023-07-13T03:08:42;4.77;;;2.13;;
7195;SDS011;3639;51.308;5.624;2023-07-13T03:11:10;4.20;;;2.30;;
7195;SDS011;3639;51.308;5.624;2023-07-13T03:13:38;5.93;;;2.27;;
7195;SDS011;3639;51.308;5.624;2023-07-13T03:16:05;4.30;;;1.97;;
7195;SDS011;3639;51.308;5.624;2023-07-13T03:18:31;5.43;;;2.20;;
7195;SDS011;3639;51.308;5.624;2023-07-13T03:20:57;3.57;;;1.83;;
7195;SDS011;3639;51.308;5.624;2023-07-13T03:23:23;4.90;;;2.23;;
7195;SDS011;3639;51.308;5.624;2023-07-13T03:25:50;7.47;;;2.37;;
7195;SDS011;3639;51.308;5.624;2023-07-13T03:28:25;3.57;;;1.97;;
7195;SDS011;3639;51.308;5.624;2023-07-13T03:30:58;3.10;;;2.20;;
7195;SDS011;3639;51.308;5.624;2023-07-13T03:33:28;2.90;;;2.00;;
7195;SDS011;3639;51.308;5.624;2023-07-13T03:35:54;7.43;;;2.20;;
7195;SDS011;3639;51.308;5.624;2023-07-13T03:38:19;3.87;;;2.30;;
7195;SDS011;3639;51.308;5.624;2023-07-13T03:40:45;6.97;;;2.10;;
7195;SDS011;3639;51.308;5.624;2023-07-13T03:43:11;5.70;;;2.40;;
7195;SDS011;3639;51.308;5.624;2023-07-13T03:45:40;6.30;;;2.50;;
7195;SDS011;3639;51.308;5.624;2023-07-13T03:48:05;4.27;;;2.10;;
7195;SDS011;3639;51.308;5.624;2023-07-13T03:50:31;4.93;;;2.20;;
7195;SDS011;3639;51.308;5.624;2023-07-13T03:52:57;8.03;;;2.60;;
7195;SDS011;3639;51.308;5.624;2023-07-13T03:55:23;3.13;;;2.17;;
7195;SDS011;3639;51.308;5.624;2023-07-13T03:58:23;4.07;;;2.37;;
7195;SDS011;3639;51.308;5.624;2023-07-13T04:00:50;6.50;;;3.00;;
7195;SDS011;3639;51.308;5.624;2023-07-13T04:03:16;7.87;;;3.13;;
7195;SDS011;3639;51.308;5.624;2023-07-13T04:05:42;7.73;;;3.03;;
7195;SDS011;3639;51.308;5.624;2023-07-13T04:08:08;7.50;;;2.97;;
7195;SDS011;3639;51.308;5.624;2023-07-13T04:10:33;6.33;;;2.83;;
7195;SDS011;3639;51.308;5.624;2023-07-13T04:12:59;7.53;;;2.57;;
7195;SDS011;3639;51.308;5.624;2023-07-13T04:15:25;3.60;;;2.60;;
7195;SDS011;3639;51.308;5.624;2023-07-13T04:17:57;5.63;;;2.80;;
7195;SDS011;3639;51.308;5.624;2023-07-13T04:20:24;7.00;;;2.87;;
7195;SDS011;3639;51.308;5.624;2023-07-13T04:22:50;7.60;;;2.70;;
7195;SDS011;3639;51.308;5.624;2023-07-13T04:25:18;7.50;;;2.73;;
7195;SDS011;3639;51.308;5.624;2023-07-13T04:27:44;3.60;;;2.63;;
7195;SDS011;3639;51.308;5.624;2023-07-13T04:30:09;12.33;;;2.53;;
7195;SDS011;3639;51.308;5.624;2023-07-13T04:32:36;5.80;;;2.83;;
7195;SDS011;3639;51.308;5.624;2023-07-13T04:35:02;5.00;;;2.50;;
7195;SDS011;3639;51.308;5.624;2023-07-13T04:37:28;4.80;;;2.27;;
7195;SDS011;3639;51.308;5.624;2023-07-13T04:39:54;5.60;;;2.50;;
7195;SDS011;3639;51.308;5.624;2023-07-13T04:42:20;4.47;;;2.50;;
7195;SDS011;3639;51.308;5.624;2023-07-13T04:44:49;6.13;;;2.40;;
7195;SDS011;3639;51.308;5.624;2023-07-13T04:47:15;4.60;;;2.37;;
7195;SDS011;3639;51.308;5.624;2023-07-13T04:49:41;6.23;;;2.20;;
7195;SDS011;3639;51.308;5.624;2023-07-13T04:52:08;5.53;;;2.13;;
7195;SDS011;3639;51.308;5.624;2023-07-13T04:54:34;4.65;;;2.80;;
7195;SDS011;3639;51.308;5.624;2023-07-13T04:57:00;4.17;;;2.20;;
7195;SDS011;3639;51.308;5.624;2023-07-13T04:59:25;3.50;;;2.10;;
7195;SDS011;3639;51.308;5.624;2023-07-13T05:01:52;4.47;;;2.37;;
7195;SDS011;3639;51.308;5.624;2023-07-13T05:04:18;7.50;;;3.20;;
7195;SDS011;3639;51.308;5.624;2023-07-13T05:06:44;2.80;;;2.33;;
7195;SDS011;3639;51.308;5.624;2023-07-13T05:09:10;5.90;;;2.63;;
7195;SDS011;3639;51.308;5.624;2023-07-13T05:11:35;4.20;;;2.33;;
7195;SDS011;3639;51.308;5.624;2023-07-13T05:14:04;5.90;;;2.67;;
7195;SDS011;3639;51.308;5.624;2023-07-13T05:16:30;7.07;;;2.40;;
7195;SDS011;3639;51.308;5.624;2023-07-13T05:18:56;5.90;;;2.50;;
7195;SDS011;3639;51.308;5.624;2023-07-13T05:21:22;7.23;;;2.23;;
7195;SDS011;3639;51.308;5.624;2023-07-13T05:23:48;8.20;;;2.73;;
7195;SDS011;3639;51.308;5.624;2023-07-13T05:26:15;6.20;;;2.33;;
7195;SDS011;3639;51.308;5.624;2023-07-13T05:28:40;7.37;;;2.43;;
7195;SDS011;3639;51.308;5.624;2023-07-13T05:31:07;8.83;;;2.87;;
7195;SDS011;3639;51.308;5.624;2023-07-13T05:33:34;5.60;;;2.53;;
7195;SDS011;3639;51.308;5.624;2023-07-13T05:36:00;9.40;;;4.93;;
7195;SDS011;3639;51.308;5.624;2023-07-13T05:38:26;8.40;;;3.10;;
7195;SDS011;3639;51.308;5.624;2023-07-13T05:40:53;5.90;;;2.47;;
7195;SDS011;3639;51.308;5.624;2023-07-13T05:43:21;6.57;;;3.07;;
7195;SDS011;3639;51.308;5.624;2023-07-13T05:45:46;9.43;;;2.73;;
7195;SDS011;3639;51.308;5.624;2023-07-13T05:48:12;8.23;;;2.83;;
7195;SDS011;3639;51.308;5.624;2023-07-13T05:50:38;7.07;;;2.70;;
7195;SDS011;3639;51.308;5.624;2023-07-13T05:53:04;11.33;;;2.57;;
7195;SDS011;3639;51.308;5.624;2023-07-13T05:55:30;5.27;;;2.83;;
7195;SDS011;3639;51.308;5.624;2023-07-13T05:57:56;8.50;;;2.60;;
7195;SDS011;3639;51.308;5.624;2023-07-13T06:00:23;9.33;;;3.50;;
7195;SDS011;3639;51.308;5.624;2023-07-13T06:02:49;6.43;;;3.17;;
7195;SDS011;3639;51.308;5.624;2023-07-13T06:05:15;7.37;;;3.07;;
7195;SDS011;3639;51.308;5.624;2023-07-13T06:07:41;6.13;;;2.67;;
7195;SDS011;3639;51.308;5.624;2023-07-13T06:10:07;6.30;;;2.63;;
7195;SDS011;3639;51.308;5.624;2023-07-13T06:12:34;5.20;;;2.93;;
7195;SDS011;3639;51.308;5.624;2023-07-13T06:14:59;8.93;;;2.77;;
7195;SDS011;3639;51.308;5.624;2023-07-13T06:17:25;8.43;;;2.83;;
7195;SDS011;3639;51.308;5.624;2023-07-13T06:19:51;11.73;;;3.73;;
7195;SDS011;3639;51.308;5.624;2023-07-13T06:22:17;8.00;;;2.70;;
7195;SDS011;3639;51.308;5.624;2023-07-13T06:24:42;12.90;;;2.87;;
7195;SDS011;3639;51.308;5.624;2023-07-13T06:27:08;8.50;;;3.70;;
7195;SDS011;3639;51.308;5.624;2023-07-13T06:29:34;11.57;;;3.90;;
7195;SDS011;3639;51.308;5.624;2023-07-13T06:31:59;6.97;;;3.27;;
7195;SDS011;3639;51.308;5.624;2023-07-13T06:34:26;7.67;;;3.63;;
7195;SDS011;3639;51.308;5.624;2023-07-13T06:36:52;12.73;;;3.20;;
7195;SDS011;3639;51.308;5.624;2023-07-13T06:39:17;8.60;;;2.97;;
7195;SDS011;3639;51.308;5.624;2023-07-13T06:41:43;9.80;;;2.93;;
7195;SDS011;3639;51.308;5.624;2023-07-13T06:44:09;6.73;;;3.23;;
7195;SDS011;3639;51.308;5.624;2023-07-13T06:46:34;6.97;;;3.43;;
7195;SDS011;3639;51.308;5.624;2023-07-13T06:49:00;5.27;;;3.07;;
7195;SDS011;3639;51.308;5.624;2023-07-13T06:51:26;10.57;;;3.53;;
7195;SDS011;3639;51.308;5.624;2023-07-13T06:53:51;5.80;;;3.07;;
7195;SDS011;3639;51.308;5.624;2023-07-13T06:56:17;6.23;;;3.27;;
7195;SDS011;3639;51.308;5.624;2023-07-13T06:58:43;9.93;;;3.30;;
7195;SDS011;3639;51.308;5.624;2023-07-13T07:01:09;8.17;;;3.60;;
7195;SDS011;3639;51.308;5.624;2023-07-13T07:03:34;9.83;;;3.10;;
7195;SDS011;3639;51.308;5.624;2023-07-13T07:06:20;9.93;;;3.27;;
7195;SDS011;3639;51.308;5.624;2023-07-13T07:08:49;7.77;;;4.13;;
7195;SDS011;3639;51.308;5.624;2023-07-13T07:11:17;7.87;;;3.27;;
7195;SDS011;3639;51.308;5.624;2023-07-13T07:13:48;11.97;;;3.43;;
7195;SDS011;3639;51.308;5.624;2023-07-13T07:16:14;7.60;;;3.60;;
7195;SDS011;3639;51.308;5.624;2023-07-13T07:18:40;8.13;;;3.63;;
7195;SDS011;3639;51.308;5.624;2023-07-13T07:21:06;10.03;;;3.33;;
7195;SDS011;3639;51.308;5.624;2023-07-13T07:23:32;8.90;;;2.97;;
7195;SDS011;3639;51.308;5.624;2023-07-13T07:25:57;9.00;;;3.57;;
7195;SDS011;3639;51.308;5.624;2023-07-13T07:28:23;13.97;;;3.77;;
7195;SDS011;3639;51.308;5.624;2023-07-13T07:30:49;6.13;;;3.37;;
7195;SDS011;3639;51.308;5.624;2023-07-13T07:33:18;7.70;;;3.10;;
7195;SDS011;3639;51.308;5.624;2023-07-13T07:35:44;8.37;;;3.60;;
7195;SDS011;3639;51.308;5.624;2023-07-13T07:38:09;7.07;;;3.27;;
7195;SDS011;3639;51.308;5.624;2023-07-13T07:40:39;7.23;;;3.00;;
7195;SDS011;3639;51.308;5.624;2023-07-13T07:43:06;7.23;;;3.50;;
7195;SDS011;3639;51.308;5.624;2023-07-13T07:45:33;6.43;;;3.20;;
7195;SDS011;3639;51.308;5.624;2023-07-13T07:47:58;9.37;;;3.83;;
7195;SDS011;3639;51.308;5.624;2023-07-13T07:50:25;7.40;;;2.87;;
7195;SDS011;3639;51.308;5.624;2023-07-13T07:52:51;7.13;;;3.13;;
7195;SDS011;3639;51.308;5.624;2023-07-13T07:55:17;7.30;;;2.80;;
7195;SDS011;3639;51.308;5.624;2023-07-13T07:57:43;6.03;;;2.50;;
7195;SDS011;3639;51.308;5.624;2023-07-13T08:00:09;4.23;;;2.67;;
7195;SDS011;3639;51.308;5.624;2023-07-13T08:02:35;8.00;;;2.80;;
7195;SDS011;3639;51.308;5.624;2023-07-13T08:05:00;6.23;;;2.60;;
7195;SDS011;3639;51.308;5.624;2023-07-13T08:07:26;5.70;;;2.60;;
7195;SDS011;3639;51.308;5.624;2023-07-13T08:09:52;5.80;;;2.83;;
7195;SDS011;3639;51.308;5.624;2023-07-13T08:12:18;10.03;;;3.07;;
7195;SDS011;3639;51.308;5.624;2023-07-13T08:14:44;9.03;;;3.10;;
7195;SDS011;3639;51.308;5.624;2023-07-13T08:17:09;7.10;;;2.60;;
7195;SDS011;3639;51.308;5.624;2023-07-13T08:19:35;9.13;;;3.20;;
7195;SDS011;3639;51.308;5.624;2023-07-13T08:22:02;6.50;;;2.47;;
7195;SDS011;3639;51.308;5.624;2023-07-13T08:24:27;6.63;;;3.17;;
7195;SDS011;3639;51.308;5.624;2023-07-13T08:26:53;3.60;;;2.27;;
7195;SDS011;3639;51.308;5.624;2023-07-13T08:29:20;8.23;;;2.60;;
7195;SDS011;3639;51.308;5.624;2023-07-13T08:31:45;5.40;;;2.20;;
7195;SDS011;3639;51.308;5.624;2023-07-13T08:34:11;7.43;;;3.03;;
7195;SDS011;3639;51.308;5.624;2023-07-13T08:36:36;9.30;;;2.67;;
7195;SDS011;3639;51.308;5.624;2023-07-13T08:39:02;9.43;;;2.70;;
7195;SDS011;3639;51.308;5.624;2023-07-13T08:41:28;6.53;;;2.57;;
7195;SDS011;3639;51.308;5.624;2023-07-13T08:43:56;5.80;;;2.33;;
7195;SDS011;3639;51.308;5.624;2023-07-13T08:46:29;8.30;;;2.90;;
7195;SDS011;3639;51.308;5.624;2023-07-13T08:49:04;6.10;;;2.27;;
7195;SDS011;3639;51.308;5.624;2023-07-13T08:51:40;5.07;;;1.97;;
7195;SDS011;3639;51.308;5.624;2023-07-13T08:54:31;5.97;;;2.37;;
7195;SDS011;3639;51.308;5.624;2023-07-13T08:57:03;6.57;;;2.40;;
7195;SDS011;3639;51.308;5.624;2023-07-13T08:59:37;12.63;;;2.83;;
7195;SDS011;3639;51.308;5.624;2023-07-13T09:05:03;6.23;;;2.43;;
7195;SDS011;3639;51.308;5.624;2023-07-13T09:16:02;7.20;;;2.90;;
7195;SDS011;3639;51.308;5.624;2023-07-13T09:18:33;3.67;;;2.37;;
7195;SDS011;3639;51.308;5.624;2023-07-13T09:21:44;5.10;;;2.33;;
7195;SDS011;3639;51.308;5.624;2023-07-13T09:24:00;4.97;;;2.40;;
7195;SDS011;3639;51.308;5.624;2023-07-13T09:26:46;4.67;;;2.17;;
7195;SDS011;3639;51.308;5.624;2023-07-13T09:29:15;7.80;;;2.40;;
7195;SDS011;3639;51.308;5.624;2023-07-13T09:31:52;6.30;;;2.03;;
7195;SDS011;3639;51.308;5.624;2023-07-13T09:34:20;3.20;;;1.50;;
7195;SDS011;3639;51.308;5.624;2023-07-13T09:36:46;3.97;;;2.23;;
7195;SDS011;3639;51.308;5.624;2023-07-13T09:39:21;7.20;;;2.37;;
7195;SDS011;3639;51.308;5.624;2023-07-13T09:42:06;7.27;;;2.40;;
7195;SDS011;3639;51.308;5.624;2023-07-13T09:49:55;4.47;;;2.05;;
7195;SDS011;3639;51.308;5.624;2023-07-13T09:52:23;4.77;;;2.23;;
7195;SDS011;3639;51.308;5.624;2023-07-13T09:54:50;6.03;;;1.63;;
7195;SDS011;3639;51.308;5.624;2023-07-13T09:57:19;5.25;;;2.03;;
7195;SDS011;3639;51.308;5.624;2023-07-13T09:59:49;6.55;;;2.08;;
7195;SDS011;3639;51.308;5.624;2023-07-13T10:04:57;3.42;;;1.80;;
7195;SDS011;3639;51.308;5.624;2023-07-13T10:07:28;5.10;;;1.98;;
7195;SDS011;3639;51.308;5.624;2023-07-13T10:09:56;7.47;;;2.20;;
7195;SDS011;3639;51.308;5.624;2023-07-13T10:12:22;3.65;;;1.80;;
7195;SDS011;3639;51.308;5.624;2023-07-13T10:14:50;5.13;;;1.80;;
7195;SDS011;3639;51.308;5.624;2023-07-13T10:17:19;4.27;;;2.10;;
7195;SDS011;3639;51.308;5.624;2023-07-13T10:19:56;4.40;;;2.05;;
7195;SDS011;3639;51.308;5.624;2023-07-13T10:25:18;3.77;;;1.97;;
7195;SDS011;3639;51.308;5.624;2023-07-13T10:27:47;5.20;;;1.77;;
7195;SDS011;3639;51.308;5.624;2023-07-13T10:30:23;4.47;;;1.90;;
7195;SDS011;3639;51.308;5.624;2023-07-13T10:33:00;4.53;;;2.28;;
7195;SDS011;3639;51.308;5.624;2023-07-13T10:35:33;2.70;;;1.52;;
7195;SDS011;3639;51.308;5.624;2023-07-13T10:40:27;4.63;;;1.57;;
7195;SDS011;3639;51.308;5.624;2023-07-13T10:42:57;5.68;;;2.13;;
7195;SDS011;3639;51.308;5.624;2023-07-13T10:45:24;3.37;;;2.00;;
7195;SDS011;3639;51.308;5.624;2023-07-13T10:47:53;4.47;;;1.80;;
7195;SDS011;3639;51.308;5.624;2023-07-13T10:50:28;3.70;;;1.73;;
7195;SDS011;3639;51.308;5.624;2023-07-13T10:53:01;2.77;;;1.80;;
7195;SDS011;3639;51.308;5.624;2023-07-13T10:58:40;3.83;;;1.73;;
7195;SDS011;3639;51.308;5.624;2023-07-13T11:00:56;3.77;;;1.83;;
7195;SDS011;3639;51.308;5.624;2023-07-13T11:03:38;5.97;;;1.73;;
7195;SDS011;3639;51.308;5.624;2023-07-13T11:06:13;5.00;;;1.50;;
7195;SDS011;3639;51.308;5.624;2023-07-13T11:18:47;2.70;;;1.67;;
7195;SDS011;3639;51.308;5.624;2023-07-13T11:21:33;4.70;;;2.03;;
7195;SDS011;3639;51.308;5.624;2023-07-13T11:24:15;5.15;;;1.63;;
7195;SDS011;3639;51.308;5.624;2023-07-13T11:31:40;2.95;;;1.60;;
7195;SDS011;3639;51.308;5.624;2023-07-13T11:34:12;3.95;;;1.92;;
7195;SDS011;3639;51.308;5.624;2023-07-13T11:36:42;4.20;;;1.63;;
7195;SDS011;3639;51.308;5.624;2023-07-13T11:41:50;3.75;;;1.88;;
7195;SDS011;3639;51.308;5.624;2023-07-13T11:44:23;4.80;;;1.88;;
7195;SDS011;3639;51.308;5.624;2023-07-13T11:46:51;4.05;;;1.73;;
7195;SDS011;3639;51.308;5.624;2023-07-13T11:49:21;3.63;;;2.10;;
7195;SDS011;3639;51.308;5.624;2023-07-13T11:51:49;3.08;;;1.70;;
7195;SDS011;3639;51.308;5.624;2023-07-13T11:56:58;5.68;;;1.98;;
7195;SDS011;3639;51.308;5.624;2023-07-13T11:59:27;4.68;;;1.92;;
7195;SDS011;3639;51.308;5.624;2023-07-13T12:01:55;2.42;;;1.67;;
7195;SDS011;3639;51.308;5.624;2023-07-13T12:04:25;5.95;;;1.65;;
7195;SDS011;3639;51.308;5.624;2023-07-13T12:06:57;5.28;;;1.63;;
7195;SDS011;3639;51.308;5.624;2023-07-13T12:09:34;4.90;;;1.98;;
7195;SDS011;3639;51.308;5.624;2023-07-13T12:12:01;4.10;;;2.05;;
7195;SDS011;3639;51.308;5.624;2023-07-13T12:14:27;4.03;;;1.67;;
7195;SDS011;3639;51.308;5.624;2023-07-13T12:16:53;3.10;;;1.75;;
7195;SDS011;3639;51.308;5.624;2023-07-13T12:19:25;3.35;;;1.50;;
7195;SDS011;3639;51.308;5.624;2023-07-13T12:21:56;3.65;;;1.52;;
7195;SDS011;3639;51.308;5.624;2023-07-13T12:24:24;5.10;;;1.50;;
7195;SDS011;3639;51.308;5.624;2023-07-13T12:26:52;3.45;;;1.60;;
7195;SDS011;3639;51.308;5.624;2023-07-13T12:29:20;2.20;;;1.30;;
7195;SDS011;3639;51.308;5.624;2023-07-13T12:31:46;2.65;;;1.80;;
7195;SDS011;3639;51.308;5.624;2023-07-13T12:34:15;5.25;;;1.60;;
7195;SDS011;3639;51.308;5.624;2023-07-13T12:42:13;2.88;;;1.90;;
7195;SDS011;3639;51.308;5.624;2023-07-13T12:44:52;4.97;;;1.58;;
7195;SDS011;3639;51.308;5.624;2023-07-13T12:47:24;4.20;;;1.60;;
7195;SDS011;3639;51.308;5.624;2023-07-13T12:49:54;2.15;;;1.40;;
7195;SDS011;3639;51.308;5.624;2023-07-13T12:52:24;3.92;;;1.95;;
7195;SDS011;3639;51.308;5.624;2023-07-13T12:54:56;4.13;;;1.50;;
7195;SDS011;3639;51.308;5.624;2023-07-13T12:57:25;2.70;;;1.52;;
7195;SDS011;3639;51.308;5.624;2023-07-13T12:59:54;2.35;;;1.33;;
7195;SDS011;3639;51.308;5.624;2023-07-13T13:02:29;4.57;;;1.58;;
7195;SDS011;3639;51.308;5.624;2023-07-13T13:04:57;4.20;;;1.55;;
7195;SDS011;3639;51.308;5.624;2023-07-13T13:07:23;3.05;;;1.20;;
7195;SDS011;3639;51.308;5.624;2023-07-13T13:09:51;1.77;;;1.40;;
7195;SDS011;3639;51.308;5.624;2023-07-13T13:12:18;2.85;;;1.60;;
7195;SDS011;3639;51.308;5.624;2023-07-13T13:14:44;3.70;;;1.38;;
7195;SDS011;3639;51.308;5.624;2023-07-13T13:17:29;4.88;;;1.63;;
7195;SDS011;3639;51.308;5.624;2023-07-13T13:19:56;4.43;;;1.95;;
7195;SDS011;3639;51.308;5.624;2023-07-13T13:22:22;3.33;;;1.80;;
7195;SDS011;3639;51.308;5.624;2023-07-13T13:24:48;3.40;;;1.50;;
7195;SDS011;3639;51.308;5.624;2023-07-13T13:27:18;2.40;;;1.70;;
7195;SDS011;3639;51.308;5.624;2023-07-13T13:29:47;2.90;;;1.60;;
7195;SDS011;3639;51.308;5.624;2023-07-13T13:32:16;2.33;;;1.60;;
7195;SDS011;3639;51.308;5.624;2023-07-13T13:34:42;3.93;;;1.93;;
7195;SDS011;3639;51.308;5.624;2023-07-13T13:37:11;4.67;;;2.40;;
7195;SDS011;3639;51.308;5.624;2023-07-13T13:39:46;3.90;;;2.03;;
7195;SDS011;3639;51.308;5.624;2023-07-13T13:42:12;3.97;;;1.50;;
7195;SDS011;3639;51.308;5.624;2023-07-13T13:44:38;3.07;;;2.00;;
7195;SDS011;3639;51.308;5.624;2023-07-13T13:47:07;3.93;;;2.07;;
7195;SDS011;3639;51.308;5.624;2023-07-13T13:49:54;2.07;;;1.57;;
7195;SDS011;3639;51.308;5.624;2023-07-13T13:52:20;3.63;;;1.67;;
7195;SDS011;3639;51.308;5.624;2023-07-13T13:54:46;2.73;;;1.60;;
7195;SDS011;3639;51.308;5.624;2023-07-13T13:57:11;2.33;;;1.50;;
7195;SDS011;3639;51.308;5.624;2023-07-13T13:59:37;1.80;;;1.40;;
7195;SDS011;3639;51.308;5.624;2023-07-13T14:02:11;3.10;;;1.93;;
7195;SDS011;3639;51.308;5.624;2023-07-13T14:04:50;1.83;;;1.50;;
7195;SDS011;3639;51.308;5.624;2023-07-13T14:07:22;5.67;;;1.77;;
7195;SDS011;3639;51.308;5.624;2023-07-13T14:09:48;3.90;;;1.90;;
7195;SDS011;3639;51.308;5.624;2023-07-13T14:12:14;3.00;;;1.70;;
7195;SDS011;3639;51.308;5.624;2023-07-13T14:14:39;1.80;;;1.50;;
7195;SDS011;3639;51.308;5.624;2023-07-13T14:17:11;5.03;;;2.00;;
7195;SDS011;3639;51.308;5.624;2023-07-13T14:19:46;2.53;;;1.80;;
7195;SDS011;3639;51.308;5.624;2023-07-13T14:22:16;5.13;;;1.87;;
7195;SDS011;3639;51.308;5.624;2023-07-13T14:24:43;3.03;;;1.93;;
7195;SDS011;3639;51.308;5.624;2023-07-13T14:27:11;2.70;;;1.70;;
7195;SDS011;3639;51.308;5.624;2023-07-13T14:29:38;3.63;;;1.63;;
7195;SDS011;3639;51.308;5.624;2023-07-13T14:32:04;3.80;;;1.80;;
7195;SDS011;3639;51.308;5.624;2023-07-13T14:34:31;4.03;;;1.60;;
7195;SDS011;3639;51.308;5.624;2023-07-13T14:36:56;3.00;;;1.80;;
7195;SDS011;3639;51.308;5.624;2023-07-13T14:39:23;5.00;;;2.00;;
7195;SDS011;3639;51.308;5.624;2023-07-13T14:41:50;4.53;;;2.13;;
7195;SDS011;3639;51.308;5.624;2023-07-13T14:44:20;4.60;;;1.63;;
7195;SDS011;3639;51.308;5.624;2023-07-13T14:46:49;3.80;;;1.70;;
7195;SDS011;3639;51.308;5.624;2023-07-13T14:49:21;4.67;;;1.93;;
7195;SDS011;3639;51.308;5.624;2023-07-13T14:51:57;3.50;;;1.53;;
7195;SDS011;3639;51.308;5.624;2023-07-13T14:54:25;2.67;;;1.50;;
7195;SDS011;3639;51.308;5.624;2023-07-13T14:56:51;1.87;;;1.43;;
7195;SDS011;3639;51.308;5.624;2023-07-13T14:59:17;3.00;;;1.87;;
7195;SDS011;3639;51.308;5.624;2023-07-13T15:01:46;2.20;;;1.40;;
7195;SDS011;3639;51.308;5.624;2023-07-13T15:04:13;2.63;;;1.77;;
7195;SDS011;3639;51.308;5.624;2023-07-13T15:06:55;1.63;;;1.50;;
7195;SDS011;3639;51.308;5.624;2023-07-13T15:09:24;2.33;;;1.50;;
7195;SDS011;3639;51.308;5.624;2023-07-13T15:11:52;4.30;;;1.40;;
7195;SDS011;3639;51.308;5.624;2023-07-13T15:14:21;6.33;;;5.03;;
7195;SDS011;3639;51.308;5.624;2023-07-13T15:16:48;15.90;;;10.10;;
7195;SDS011;3639;51.308;5.624;2023-07-13T15:19:16;2.93;;;1.97;;
7195;SDS011;3639;51.308;5.624;2023-07-13T15:21:43;1.83;;;1.37;;
7195;SDS011;3639;51.308;5.624;2023-07-13T15:24:09;1.70;;;1.40;;
7195;SDS011;3639;51.308;5.624;2023-07-13T15:26:36;6.00;;;1.63;;
7195;SDS011;3639;51.308;5.624;2023-07-13T15:29:02;3.47;;;2.20;;
7195;SDS011;3639;51.308;5.624;2023-07-13T15:31:28;5.23;;;1.57;;
7195;SDS011;3639;51.308;5.624;2023-07-13T15:33:56;2.27;;;1.40;;
7195;SDS011;3639;51.308;5.624;2023-07-13T15:36:23;3.27;;;1.50;;
7195;SDS011;3639;51.308;5.624;2023-07-13T15:38:54;2.50;;;1.50;;
7195;SDS011;3639;51.308;5.624;2023-07-13T15:41:21;2.67;;;1.67;;
7195;SDS011;3639;51.308;5.624;2023-07-13T15:43:49;4.93;;;1.38;;
7195;SDS011;3639;51.308;5.624;2023-07-13T15:46:20;2.43;;;1.30;;
7195;SDS011;3639;51.308;5.624;2023-07-13T15:48:47;2.83;;;1.50;;
7195;SDS011;3639;51.308;5.624;2023-07-13T15:51:20;3.50;;;2.00;;
7195;SDS011;3639;51.308;5.624;2023-07-13T15:53:50;3.50;;;1.93;;
7195;SDS011;3639;51.308;5.624;2023-07-13T15:56:21;2.93;;;1.50;;
7195;SDS011;3639;51.308;5.624;2023-07-13T15:58:49;3.57;;;2.03;;
7195;SDS011;3639;51.308;5.624;2023-07-13T16:01:16;4.23;;;1.77;;
7195;SDS011;3639;51.308;5.624;2023-07-13T16:03:42;3.73;;;1.80;;
7195;SDS011;3639;51.308;5.624;2023-07-13T16:06:24;3.13;;;1.60;;
7195;SDS011;3639;51.308;5.624;2023-07-13T16:08:53;4.90;;;1.90;;
7195;SDS011;3639;51.308;5.624;2023-07-13T16:13:45;2.83;;;1.60;;
7195;SDS011;3639;51.308;5.624;2023-07-13T16:16:12;4.17;;;1.83;;
7195;SDS011;3639;51.308;5.624;2023-07-13T16:18:39;2.63;;;1.60;;